sensor_id;sensor_type;location;lat;lon;timestamp;temperature;humidity
49379;DHT22;35254;47.990;-1.608;2023-03-12T00:00:33;20.90;57.30
49379;DHT22;35254;47.990;-1.608;2023-03-12T00:02:59;20.90;57.20
49379;DHT22;35254;47.990;-1.608;2023-03-12T00:05:25;20.90;57.20
49379;DHT22;35254;47.990;-1.608;2023-03-12T00:07:51;20.80;57.20
49379;DHT22;35254;47.990;-1.608;2023-03-12T00:10:18;20.80;57.20
49379;DHT22;35254;47.990;-1.608;2023-03-12T00:12:43;20.80;57.30
49379;DHT22;35254;47.990;-1.608;2023-03-12T00:15:09;20.80;57.40
49379;DHT22;35254;47.990;-1.608;2023-03-12T00:17:35;20.80;57.30
49379;DHT22;35254;47.990;-1.608;2023-03-12T00:20:02;20.80;57.30
49379;DHT22;35254;47.990;-1.608;2023-03-12T00:22:29;20.80;57.30
49379;DHT22;35254;47.990;-1.608;2023-03-12T00:24:55;20.80;57.10
49379;DHT22;35254;47.990;-1.608;2023-03-12T00:27:22;20.80;57.30
49379;DHT22;35254;47.990;-1.608;2023-03-12T00:29:48;20.70;57.10
49379;DHT22;35254;47.990;-1.608;2023-03-12T00:32:14;20.70;57.20
49379;DHT22;35254;47.990;-1.608;2023-03-12T00:34:40;20.70;57.10
49379;DHT22;35254;47.990;-1.608;2023-03-12T00:37:06;20.80;57.00
49379;DHT22;35254;47.990;-1.608;2023-03-12T00:39:32;20.80;57.00
49379;DHT22;35254;47.990;-1.608;2023-03-12T00:41:59;20.80;57.00
49379;DHT22;35254;47.990;-1.608;2023-03-12T00:44:24;20.80;57.00
49379;DHT22;35254;47.990;-1.608;2023-03-12T00:46:50;20.70;57.00
49379;DHT22;35254;47.990;-1.608;2023-03-12T00:49:16;20.70;57.00
49379;DHT22;35254;47.990;-1.608;2023-03-12T00:51:41;20.80;56.90
49379;DHT22;35254;47.990;-1.608;2023-03-12T00:54:07;20.80;56.90
49379;DHT22;35254;47.990;-1.608;2023-03-12T00:56:33;20.70;57.00
49379;DHT22;35254;47.990;-1.608;2023-03-12T00:58:58;20.70;57.20
49379;DHT22;35254;47.990;-1.608;2023-03-12T01:01:24;20.70;57.10
49379;DHT22;35254;47.990;-1.608;2023-03-12T01:03:52;20.70;57.10
49379;DHT22;35254;47.990;-1.608;2023-03-12T01:06:18;20.70;57.50
49379;DHT22;35254;47.990;-1.608;2023-03-12T01:08:44;20.70;57.40
49379;DHT22;35254;47.990;-1.608;2023-03-12T01:11:14;20.70;57.10
49379;DHT22;35254;47.990;-1.608;2023-03-12T01:13:40;20.70;57.30
49379;DHT22;35254;47.990;-1.608;2023-03-12T01:16:06;20.70;56.80
49379;DHT22;35254;47.990;-1.608;2023-03-12T01:18:31;20.70;56.50
49379;DHT22;35254;47.990;-1.608;2023-03-12T01:20:57;20.70;56.30
49379;DHT22;35254;47.990;-1.608;2023-03-12T01:23:23;20.70;56.10
49379;DHT22;35254;47.990;-1.608;2023-03-12T01:25:49;20.70;56.20
49379;DHT22;35254;47.990;-1.608;2023-03-12T01:28:17;20.70;56.50
49379;DHT22;35254;47.990;-1.608;2023-03-12T01:30:43;20.70;56.00
49379;DHT22;35254;47.990;-1.608;2023-03-12T01:33:08;20.70;55.90
49379;DHT22;35254;47.990;-1.608;2023-03-12T01:35:38;20.70;55.70
49379;DHT22;35254;47.990;-1.608;2023-03-12T01:38:08;20.70;55.50
49379;DHT22;35254;47.990;-1.608;2023-03-12T01:40:35;20.70;55.60
49379;DHT22;35254;47.990;-1.608;2023-03-12T01:43:22;20.70;55.40
49379;DHT22;35254;47.990;-1.608;2023-03-12T01:48:47;20.60;55.60
49379;DHT22;35254;47.990;-1.608;2023-03-12T01:51:15;20.60;55.20
49379;DHT22;35254;47.990;-1.608;2023-03-12T01:53:44;20.60;55.20
49379;DHT22;35254;47.990;-1.608;2023-03-12T01:56:12;20.60;55.00
49379;DHT22;35254;47.990;-1.608;2023-03-12T01:58:43;20.60;55.10
49379;DHT22;35254;47.990;-1.608;2023-03-12T02:01:09;20.60;55.20
49379;DHT22;35254;47.990;-1.608;2023-03-12T02:03:36;20.60;55.10
49379;DHT22;35254;47.990;-1.608;2023-03-12T02:06:09;20.60;55.10
49379;DHT22;35254;47.990;-1.608;2023-03-12T02:08:38;20.60;55.00
49379;DHT22;35254;47.990;-1.608;2023-03-12T02:11:05;20.60;55.00
49379;DHT22;35254;47.990;-1.608;2023-03-12T02:13:31;20.60;54.80
49379;DHT22;35254;47.990;-1.608;2023-03-12T02:15:57;20.60;54.90
49379;DHT22;35254;47.990;-1.608;2023-03-12T02:18:23;20.60;55.00
49379;DHT22;35254;47.990;-1.608;2023-03-12T02:24:01;20.50;54.80
49379;DHT22;35254;47.990;-1.608;2023-03-12T02:26:28;20.50;54.80
49379;DHT22;35254;47.990;-1.608;2023-03-12T02:28:55;20.50;54.70
49379;DHT22;35254;47.990;-1.608;2023-03-12T02:31:24;20.50;54.80
49379;DHT22;35254;47.990;-1.608;2023-03-12T02:33:50;20.50;54.90
49379;DHT22;35254;47.990;-1.608;2023-03-12T02:36:18;20.50;54.90
49379;DHT22;35254;47.990;-1.608;2023-03-12T02:38:49;20.50;54.70
49379;DHT22;35254;47.990;-1.608;2023-03-12T02:41:23;20.50;54.70
49379;DHT22;35254;47.990;-1.608;2023-03-12T02:46:21;20.50;54.60
49379;DHT22;35254;47.990;-1.608;2023-03-12T02:48:47;20.50;54.50
49379;DHT22;35254;47.990;-1.608;2023-03-12T02:51:13;20.50;54.50
49379;DHT22;35254;47.990;-1.608;2023-03-12T02:53:38;20.50;54.70
49379;DHT22;35254;47.990;-1.608;2023-03-12T02:56:05;20.40;54.70
49379;DHT22;35254;47.990;-1.608;2023-03-12T02:58:30;20.50;54.50
49379;DHT22;35254;47.990;-1.608;2023-03-12T03:00:56;20.40;54.70
49379;DHT22;35254;47.990;-1.608;2023-03-12T03:03:21;20.50;54.60
49379;DHT22;35254;47.990;-1.608;2023-03-12T03:05:47;20.50;54.50
49379;DHT22;35254;47.990;-1.608;2023-03-12T03:08:13;20.40;54.60
49379;DHT22;35254;47.990;-1.608;2023-03-12T03:10:38;20.40;54.50
49379;DHT22;35254;47.990;-1.608;2023-03-12T03:13:04;20.40;54.60
49379;DHT22;35254;47.990;-1.608;2023-03-12T03:15:30;20.50;54.50
49379;DHT22;35254;47.990;-1.608;2023-03-12T03:17:55;20.40;54.60
49379;DHT22;35254;47.990;-1.608;2023-03-12T03:20:22;20.40;54.40
49379;DHT22;35254;47.990;-1.608;2023-03-12T03:22:50;20.50;54.60
49379;DHT22;35254;47.990;-1.608;2023-03-12T03:25:16;20.40;54.30
49379;DHT22;35254;47.990;-1.608;2023-03-12T03:27:42;20.40;54.30
49379;DHT22;35254;47.990;-1.608;2023-03-12T03:30:08;20.40;54.30
49379;DHT22;35254;47.990;-1.608;2023-03-12T03:32:34;20.40;54.40
49379;DHT22;35254;47.990;-1.608;2023-03-12T03:35:00;20.40;54.30
49379;DHT22;35254;47.990;-1.608;2023-03-12T03:37:25;20.40;54.30
49379;DHT22;35254;47.990;-1.608;2023-03-12T03:39:51;20.40;54.30
49379;DHT22;35254;47.990;-1.608;2023-03-12T03:42:17;20.40;54.20
49379;DHT22;35254;47.990;-1.608;2023-03-12T03:44:42;20.40;54.20
49379;DHT22;35254;47.990;-1.608;2023-03-12T03:47:08;20.40;54.30
49379;DHT22;35254;47.990;-1.608;2023-03-12T03:49:34;20.40;54.10
49379;DHT22;35254;47.990;-1.608;2023-03-12T03:51:59;20.40;54.30
49379;DHT22;35254;47.990;-1.608;2023-03-12T03:54:25;20.30;54.20
49379;DHT22;35254;47.990;-1.608;2023-03-12T03:56:50;20.30;54.10
49379;DHT22;35254;47.990;-1.608;2023-03-12T03:59:16;20.30;54.00
49379;DHT22;35254;47.990;-1.608;2023-03-12T04:01:41;20.30;53.90
49379;DHT22;35254;47.990;-1.608;2023-03-12T04:04:07;20.30;54.00
49379;DHT22;35254;47.990;-1.608;2023-03-12T04:06:33;20.30;54.00
49379;DHT22;35254;47.990;-1.608;2023-03-12T04:08:59;20.30;53.90
49379;DHT22;35254;47.990;-1.608;2023-03-12T04:11:25;20.30;54.10
49379;DHT22;35254;47.990;-1.608;2023-03-12T04:13:50;20.30;53.80
49379;DHT22;35254;47.990;-1.608;2023-03-12T04:16:17;20.30;53.90
49379;DHT22;35254;47.990;-1.608;2023-03-12T04:18:43;20.30;53.90
49379;DHT22;35254;47.990;-1.608;2023-03-12T04:21:10;20.30;53.80
49379;DHT22;35254;47.990;-1.608;2023-03-12T04:23:36;20.30;53.80
49379;DHT22;35254;47.990;-1.608;2023-03-12T04:26:02;20.30;53.70
49379;DHT22;35254;47.990;-1.608;2023-03-12T04:28:28;20.30;53.70
49379;DHT22;35254;47.990;-1.608;2023-03-12T04:30:59;20.30;53.70
49379;DHT22;35254;47.990;-1.608;2023-03-12T04:33:29;20.30;53.70
49379;DHT22;35254;47.990;-1.608;2023-03-12T04:35:55;20.30;53.50
49379;DHT22;35254;47.990;-1.608;2023-03-12T04:38:22;20.30;53.40
49379;DHT22;35254;47.990;-1.608;2023-03-12T04:41:03;20.30;53.60
49379;DHT22;35254;47.990;-1.608;2023-03-12T04:43:29;20.30;53.50
49379;DHT22;35254;47.990;-1.608;2023-03-12T04:45:55;20.30;53.30
49379;DHT22;35254;47.990;-1.608;2023-03-12T04:48:21;20.30;53.30
49379;DHT22;35254;47.990;-1.608;2023-03-12T04:50:46;20.30;53.30
49379;DHT22;35254;47.990;-1.608;2023-03-12T04:53:12;20.20;53.40
49379;DHT22;35254;47.990;-1.608;2023-03-12T04:55:38;20.30;53.30
49379;DHT22;35254;47.990;-1.608;2023-03-12T04:58:03;20.30;53.40
49379;DHT22;35254;47.990;-1.608;2023-03-12T05:00:29;20.20;53.20
49379;DHT22;35254;47.990;-1.608;2023-03-12T05:02:55;20.20;53.30
49379;DHT22;35254;47.990;-1.608;2023-03-12T05:05:20;20.20;53.20
49379;DHT22;35254;47.990;-1.608;2023-03-12T05:07:46;20.30;53.20
49379;DHT22;35254;47.990;-1.608;2023-03-12T05:10:12;20.30;53.10
49379;DHT22;35254;47.990;-1.608;2023-03-12T05:12:37;20.30;53.20
49379;DHT22;35254;47.990;-1.608;2023-03-12T05:15:03;20.20;53.10
49379;DHT22;35254;47.990;-1.608;2023-03-12T05:17:29;20.30;53.20
49379;DHT22;35254;47.990;-1.608;2023-03-12T05:19:54;20.20;53.10
49379;DHT22;35254;47.990;-1.608;2023-03-12T05:22:20;20.30;52.90
49379;DHT22;35254;47.990;-1.608;2023-03-12T05:24:46;20.20;52.90
49379;DHT22;35254;47.990;-1.608;2023-03-12T05:27:11;20.20;53.00
49379;DHT22;35254;47.990;-1.608;2023-03-12T05:29:37;20.20;53.00
49379;DHT22;35254;47.990;-1.608;2023-03-12T05:32:03;20.20;52.90
49379;DHT22;35254;47.990;-1.608;2023-03-12T05:34:30;20.20;52.90
49379;DHT22;35254;47.990;-1.608;2023-03-12T05:36:56;20.20;52.80
49379;DHT22;35254;47.990;-1.608;2023-03-12T05:39:22;20.20;52.80
49379;DHT22;35254;47.990;-1.608;2023-03-12T05:41:48;20.20;52.80
49379;DHT22;35254;47.990;-1.608;2023-03-12T05:44:14;20.20;52.90
49379;DHT22;35254;47.990;-1.608;2023-03-12T05:46:42;20.20;52.80
49379;DHT22;35254;47.990;-1.608;2023-03-12T05:49:08;20.20;52.80
49379;DHT22;35254;47.990;-1.608;2023-03-12T05:51:34;20.20;52.80
49379;DHT22;35254;47.990;-1.608;2023-03-12T05:54:00;20.20;52.80
49379;DHT22;35254;47.990;-1.608;2023-03-12T05:56:26;20.20;52.70
49379;DHT22;35254;47.990;-1.608;2023-03-12T05:58:52;20.20;52.70
49379;DHT22;35254;47.990;-1.608;2023-03-12T06:01:28;20.20;52.80
49379;DHT22;35254;47.990;-1.608;2023-03-12T06:03:54;20.20;52.80
49379;DHT22;35254;47.990;-1.608;2023-03-12T06:06:20;20.20;52.70
49379;DHT22;35254;47.990;-1.608;2023-03-12T06:08:46;20.20;52.60
49379;DHT22;35254;47.990;-1.608;2023-03-12T06:11:12;20.20;52.60
49379;DHT22;35254;47.990;-1.608;2023-03-12T06:13:37;20.20;52.50
49379;DHT22;35254;47.990;-1.608;2023-03-12T06:16:06;20.20;52.40
49379;DHT22;35254;47.990;-1.608;2023-03-12T06:18:32;20.20;52.60
49379;DHT22;35254;47.990;-1.608;2023-03-12T06:21:16;20.20;52.60
49379;DHT22;35254;47.990;-1.608;2023-03-12T06:23:43;20.20;52.50
49379;DHT22;35254;47.990;-1.608;2023-03-12T06:26:09;20.20;52.50
49379;DHT22;35254;47.990;-1.608;2023-03-12T06:28:35;20.20;52.60
49379;DHT22;35254;47.990;-1.608;2023-03-12T06:31:01;20.20;52.40
49379;DHT22;35254;47.990;-1.608;2023-03-12T06:33:28;20.20;52.40
49379;DHT22;35254;47.990;-1.608;2023-03-12T06:35:55;20.20;52.40
49379;DHT22;35254;47.990;-1.608;2023-03-12T06:38:22;20.20;52.40
49379;DHT22;35254;47.990;-1.608;2023-03-12T06:41:05;20.20;52.50
49379;DHT22;35254;47.990;-1.608;2023-03-12T06:43:32;20.20;52.40
49379;DHT22;35254;47.990;-1.608;2023-03-12T06:45:59;20.20;52.30
49379;DHT22;35254;47.990;-1.608;2023-03-12T06:48:26;20.20;52.40
49379;DHT22;35254;47.990;-1.608;2023-03-12T06:50:52;20.20;52.40
49379;DHT22;35254;47.990;-1.608;2023-03-12T06:53:18;20.20;52.30
49379;DHT22;35254;47.990;-1.608;2023-03-12T06:55:45;20.20;52.30
49379;DHT22;35254;47.990;-1.608;2023-03-12T06:58:11;20.20;52.30
49379;DHT22;35254;47.990;-1.608;2023-03-12T07:00:37;20.20;52.20
49379;DHT22;35254;47.990;-1.608;2023-03-12T07:03:03;20.20;52.20
49379;DHT22;35254;47.990;-1.608;2023-03-12T07:05:29;20.20;52.20
49379;DHT22;35254;47.990;-1.608;2023-03-12T07:07:55;20.10;52.20
49379;DHT22;35254;47.990;-1.608;2023-03-12T07:10:21;20.20;52.10
49379;DHT22;35254;47.990;-1.608;2023-03-12T07:12:47;20.20;52.20
49379;DHT22;35254;47.990;-1.608;2023-03-12T07:15:13;20.20;52.10
49379;DHT22;35254;47.990;-1.608;2023-03-12T07:17:39;20.20;52.10
49379;DHT22;35254;47.990;-1.608;2023-03-12T07:20:05;20.20;52.00
49379;DHT22;35254;47.990;-1.608;2023-03-12T07:22:31;20.20;52.00
49379;DHT22;35254;47.990;-1.608;2023-03-12T07:24:56;20.20;51.90
49379;DHT22;35254;47.990;-1.608;2023-03-12T07:27:22;20.10;52.00
49379;DHT22;35254;47.990;-1.608;2023-03-12T07:29:48;20.20;51.90
49379;DHT22;35254;47.990;-1.608;2023-03-12T07:32:14;20.20;52.00
49379;DHT22;35254;47.990;-1.608;2023-03-12T07:34:39;20.20;52.00
49379;DHT22;35254;47.990;-1.608;2023-03-12T07:37:05;20.20;51.80
49379;DHT22;35254;47.990;-1.608;2023-03-12T07:39:31;20.10;52.00
49379;DHT22;35254;47.990;-1.608;2023-03-12T07:41:56;20.10;51.90
49379;DHT22;35254;47.990;-1.608;2023-03-12T07:44:22;20.10;52.00
49379;DHT22;35254;47.990;-1.608;2023-03-12T07:46:48;20.10;52.00
49379;DHT22;35254;47.990;-1.608;2023-03-12T07:49:13;20.10;52.00
49379;DHT22;35254;47.990;-1.608;2023-03-12T07:51:39;20.10;52.00
49379;DHT22;35254;47.990;-1.608;2023-03-12T07:54:04;20.10;52.00
49379;DHT22;35254;47.990;-1.608;2023-03-12T07:56:30;20.10;52.00
49379;DHT22;35254;47.990;-1.608;2023-03-12T07:58:56;20.10;52.00
49379;DHT22;35254;47.990;-1.608;2023-03-12T08:01:21;20.10;51.90
49379;DHT22;35254;47.990;-1.608;2023-03-12T08:03:47;20.10;51.90
49379;DHT22;35254;47.990;-1.608;2023-03-12T08:06:13;20.10;51.90
49379;DHT22;35254;47.990;-1.608;2023-03-12T08:08:38;20.10;52.00
49379;DHT22;35254;47.990;-1.608;2023-03-12T08:11:07;20.10;51.90
49379;DHT22;35254;47.990;-1.608;2023-03-12T08:13:34;20.10;52.00
49379;DHT22;35254;47.990;-1.608;2023-03-12T08:16:00;20.10;51.90
49379;DHT22;35254;47.990;-1.608;2023-03-12T08:18:25;20.10;51.90
49379;DHT22;35254;47.990;-1.608;2023-03-12T08:20:52;20.10;52.00
49379;DHT22;35254;47.990;-1.608;2023-03-12T08:23:19;20.10;52.00
49379;DHT22;35254;47.990;-1.608;2023-03-12T08:25:46;20.10;52.00
49379;DHT22;35254;47.990;-1.608;2023-03-12T08:28:13;20.10;52.10
49379;DHT22;35254;47.990;-1.608;2023-03-12T08:30:45;20.10;52.10
49379;DHT22;35254;47.990;-1.608;2023-03-12T08:33:10;20.10;52.00
49379;DHT22;35254;47.990;-1.608;2023-03-12T08:35:36;20.10;52.10
49379;DHT22;35254;47.990;-1.608;2023-03-12T08:38:02;20.10;52.20
49379;DHT22;35254;47.990;-1.608;2023-03-12T08:40:27;20.10;52.20
49379;DHT22;35254;47.990;-1.608;2023-03-12T08:42:53;20.10;52.20
49379;DHT22;35254;47.990;-1.608;2023-03-12T08:45:19;20.10;52.20
49379;DHT22;35254;47.990;-1.608;2023-03-12T08:47:45;20.00;52.40
49379;DHT22;35254;47.990;-1.608;2023-03-12T08:50:12;20.10;52.80
49379;DHT22;35254;47.990;-1.608;2023-03-12T08:52:38;20.10;53.00
49379;DHT22;35254;47.990;-1.608;2023-03-12T08:55:04;20.10;52.90
49379;DHT22;35254;47.990;-1.608;2023-03-12T08:57:31;20.10;52.80
49379;DHT22;35254;47.990;-1.608;2023-03-12T08:59:56;20.10;52.60
49379;DHT22;35254;47.990;-1.608;2023-03-12T09:02:22;20.10;52.70
49379;DHT22;35254;47.990;-1.608;2023-03-12T09:04:49;20.20;52.70
49379;DHT22;35254;47.990;-1.608;2023-03-12T09:07:15;20.20;52.70
49379;DHT22;35254;47.990;-1.608;2023-03-12T09:09:43;20.30;52.50
49379;DHT22;35254;47.990;-1.608;2023-03-12T09:12:09;20.40;52.40
49379;DHT22;35254;47.990;-1.608;2023-03-12T09:14:35;20.40;52.50
49379;DHT22;35254;47.990;-1.608;2023-03-12T09:17:01;20.40;52.50
49379;DHT22;35254;47.990;-1.608;2023-03-12T09:19:27;20.40;52.30
49379;DHT22;35254;47.990;-1.608;2023-03-12T09:21:53;20.50;52.10
49379;DHT22;35254;47.990;-1.608;2023-03-12T09:24:19;20.50;52.20
49379;DHT22;35254;47.990;-1.608;2023-03-12T09:26:45;20.50;52.50
49379;DHT22;35254;47.990;-1.608;2023-03-12T09:29:11;20.40;52.60
49379;DHT22;35254;47.990;-1.608;2023-03-12T09:31:37;20.40;52.30
49379;DHT22;35254;47.990;-1.608;2023-03-12T09:34:03;20.50;52.20
49379;DHT22;35254;47.990;-1.608;2023-03-12T09:36:30;20.50;52.20
49379;DHT22;35254;47.990;-1.608;2023-03-12T09:38:55;20.50;52.50
49379;DHT22;35254;47.990;-1.608;2023-03-12T09:41:29;20.30;52.60
49379;DHT22;35254;47.990;-1.608;2023-03-12T09:44:19;20.40;52.60
49379;DHT22;35254;47.990;-1.608;2023-03-12T09:46:49;20.50;52.40
49379;DHT22;35254;47.990;-1.608;2023-03-12T09:49:37;20.50;52.50
49379;DHT22;35254;47.990;-1.608;2023-03-12T09:55:06;20.50;52.90
49379;DHT22;35254;47.990;-1.608;2023-03-12T09:57:32;20.50;53.30
49379;DHT22;35254;47.990;-1.608;2023-03-12T09:59:58;20.60;53.20
49379;DHT22;35254;47.990;-1.608;2023-03-12T10:08:12;20.60;53.10
49379;DHT22;35254;47.990;-1.608;2023-03-12T10:22:59;20.60;52.90
49379;DHT22;35254;47.990;-1.608;2023-03-12T10:25:50;20.50;53.10
49379;DHT22;35254;47.990;-1.608;2023-03-12T10:28:33;20.40;52.90
49379;DHT22;35254;47.990;-1.608;2023-03-12T10:31:04;20.30;53.20
49379;DHT22;35254;47.990;-1.608;2023-03-12T10:33:54;20.40;53.00
49379;DHT22;35254;47.990;-1.608;2023-03-12T10:36:24;20.50;52.90
49379;DHT22;35254;47.990;-1.608;2023-03-12T10:38:50;20.50;52.80
49379;DHT22;35254;47.990;-1.608;2023-03-12T10:41:24;20.50;52.90
49379;DHT22;35254;47.990;-1.608;2023-03-12T10:43:56;20.50;52.80
49379;DHT22;35254;47.990;-1.608;2023-03-12T10:46:40;20.60;52.70
49379;DHT22;35254;47.990;-1.608;2023-03-12T10:49:24;20.60;52.70
49379;DHT22;35254;47.990;-1.608;2023-03-12T10:51:54;20.60;52.70
49379;DHT22;35254;47.990;-1.608;2023-03-12T10:54:31;20.60;52.60
49379;DHT22;35254;47.990;-1.608;2023-03-12T10:56:57;20.70;52.50
49379;DHT22;35254;47.990;-1.608;2023-03-12T10:59:35;20.70;52.60
49379;DHT22;35254;47.990;-1.608;2023-03-12T11:02:02;20.70;52.80
49379;DHT22;35254;47.990;-1.608;2023-03-12T11:04:50;20.70;53.00
49379;DHT22;35254;47.990;-1.608;2023-03-12T11:07:27;20.60;53.20
49379;DHT22;35254;47.990;-1.608;2023-03-12T11:10:15;20.60;53.30
49379;DHT22;35254;47.990;-1.608;2023-03-12T11:12:52;20.60;53.10
49379;DHT22;35254;47.990;-1.608;2023-03-12T11:15:29;20.70;53.00
49379;DHT22;35254;47.990;-1.608;2023-03-12T11:23:37;20.70;52.90
49379;DHT22;35254;47.990;-1.608;2023-03-12T11:26:18;20.50;53.80
49379;DHT22;35254;47.990;-1.608;2023-03-12T11:28:50;20.50;53.60
49379;DHT22;35254;47.990;-1.608;2023-03-12T11:31:30;20.60;53.50
49379;DHT22;35254;47.990;-1.608;2023-03-12T11:34:03;20.70;53.50
49379;DHT22;35254;47.990;-1.608;2023-03-12T11:36:48;20.70;53.30
49379;DHT22;35254;47.990;-1.608;2023-03-12T11:39:40;20.70;53.30
49379;DHT22;35254;47.990;-1.608;2023-03-12T11:50:33;20.70;53.10
49379;DHT22;35254;47.990;-1.608;2023-03-12T11:53:27;20.70;53.80
49379;DHT22;35254;47.990;-1.608;2023-03-12T12:12:21;20.70;53.30
49379;DHT22;35254;47.990;-1.608;2023-03-12T12:23:09;20.70;53.50
49379;DHT22;35254;47.990;-1.608;2023-03-12T12:31:21;20.70;54.10
49379;DHT22;35254;47.990;-1.608;2023-03-12T12:36:24;20.70;54.40
49379;DHT22;35254;47.990;-1.608;2023-03-12T12:38:53;20.70;53.90
49379;DHT22;35254;47.990;-1.608;2023-03-12T12:41:23;20.60;53.70
49379;DHT22;35254;47.990;-1.608;2023-03-12T12:43:58;20.70;53.50
49379;DHT22;35254;47.990;-1.608;2023-03-12T12:46:39;20.70;53.50
49379;DHT22;35254;47.990;-1.608;2023-03-12T12:49:12;20.70;53.50
49379;DHT22;35254;47.990;-1.608;2023-03-12T12:51:42;20.70;53.60
49379;DHT22;35254;47.990;-1.608;2023-03-12T13:02:20;20.70;55.30
49379;DHT22;35254;47.990;-1.608;2023-03-12T13:04:47;20.70;56.90
49379;DHT22;35254;47.990;-1.608;2023-03-12T13:09:50;20.70;57.80
49379;DHT22;35254;47.990;-1.608;2023-03-12T13:14:46;20.80;58.50
49379;DHT22;35254;47.990;-1.608;2023-03-12T13:17:35;20.70;57.50
49379;DHT22;35254;47.990;-1.608;2023-03-12T13:20:21;20.70;58.70
49379;DHT22;35254;47.990;-1.608;2023-03-12T13:30:56;20.80;57.70
49379;DHT22;35254;47.990;-1.608;2023-03-12T13:33:41;20.80;57.50
49379;DHT22;35254;47.990;-1.608;2023-03-12T13:41:45;20.90;56.70
49379;DHT22;35254;47.990;-1.608;2023-03-12T13:54:45;20.90;56.60
49379;DHT22;35254;47.990;-1.608;2023-03-12T13:57:40;20.90;56.10
49379;DHT22;35254;47.990;-1.608;2023-03-12T14:02:52;20.90;56.20
49379;DHT22;35254;47.990;-1.608;2023-03-12T14:05:19;20.90;56.90
49379;DHT22;35254;47.990;-1.608;2023-03-12T14:10:43;21.00;57.90
49379;DHT22;35254;47.990;-1.608;2023-03-12T14:18:23;21.00;56.70
49379;DHT22;35254;47.990;-1.608;2023-03-12T14:20:58;21.10;56.20
49379;DHT22;35254;47.990;-1.608;2023-03-12T14:23:32;21.10;56.80
49379;DHT22;35254;47.990;-1.608;2023-03-12T14:26:00;21.10;56.80
49379;DHT22;35254;47.990;-1.608;2023-03-12T14:28:27;21.00;56.90
49379;DHT22;35254;47.990;-1.608;2023-03-12T14:31:10;21.00;57.20
49379;DHT22;35254;47.990;-1.608;2023-03-12T14:36:45;20.90;57.50
49379;DHT22;35254;47.990;-1.608;2023-03-12T14:42:26;20.90;59.30
49379;DHT22;35254;47.990;-1.608;2023-03-12T14:45:13;20.90;59.50
49379;DHT22;35254;47.990;-1.608;2023-03-12T14:47:55;20.80;58.60
49379;DHT22;35254;47.990;-1.608;2023-03-12T14:52:46;20.90;60.20
49379;DHT22;35254;47.990;-1.608;2023-03-12T14:55:15;20.90;58.90
49379;DHT22;35254;47.990;-1.608;2023-03-12T14:57:43;20.90;58.80
49379;DHT22;35254;47.990;-1.608;2023-03-12T15:00:23;20.90;58.30
49379;DHT22;35254;47.990;-1.608;2023-03-12T15:02:51;20.90;58.40
49379;DHT22;35254;47.990;-1.608;2023-03-12T15:05:19;20.90;58.80
49379;DHT22;35254;47.990;-1.608;2023-03-12T15:07:47;20.90;59.10
49379;DHT22;35254;47.990;-1.608;2023-03-12T15:10:24;20.80;58.00
49379;DHT22;35254;47.990;-1.608;2023-03-12T15:12:54;20.80;57.90
49379;DHT22;35254;47.990;-1.608;2023-03-12T15:17:54;20.80;58.00
49379;DHT22;35254;47.990;-1.608;2023-03-12T15:20:21;20.80;57.50
49379;DHT22;35254;47.990;-1.608;2023-03-12T15:22:48;20.90;57.50
49379;DHT22;35254;47.990;-1.608;2023-03-12T15:25:34;20.80;57.70
49379;DHT22;35254;47.990;-1.608;2023-03-12T15:30:36;20.90;57.30
49379;DHT22;35254;47.990;-1.608;2023-03-12T15:33:21;20.90;57.00
49379;DHT22;35254;47.990;-1.608;2023-03-12T15:38:27;20.80;57.80
49379;DHT22;35254;47.990;-1.608;2023-03-12T15:40:55;20.80;56.60
49379;DHT22;35254;47.990;-1.608;2023-03-12T15:43:23;20.80;56.40
49379;DHT22;35254;47.990;-1.608;2023-03-12T15:45:59;20.80;56.20
49379;DHT22;35254;47.990;-1.608;2023-03-12T15:48:46;20.90;56.40
49379;DHT22;35254;47.990;-1.608;2023-03-12T15:51:26;20.90;56.40
49379;DHT22;35254;47.990;-1.608;2023-03-12T15:54:00;20.80;56.60
49379;DHT22;35254;47.990;-1.608;2023-03-12T15:56:32;20.90;56.20
49379;DHT22;35254;47.990;-1.608;2023-03-12T15:59:17;20.90;56.70
49379;DHT22;35254;47.990;-1.608;2023-03-12T16:01:47;20.80;56.10
49379;DHT22;35254;47.990;-1.608;2023-03-12T16:04:13;20.90;56.40
49379;DHT22;35254;47.990;-1.608;2023-03-12T16:06:39;20.90;56.00
49379;DHT22;35254;47.990;-1.608;2023-03-12T16:09:15;20.80;54.90
49379;DHT22;35254;47.990;-1.608;2023-03-12T16:11:41;20.80;56.30
49379;DHT22;35254;47.990;-1.608;2023-03-12T16:14:23;20.80;55.80
49379;DHT22;35254;47.990;-1.608;2023-03-12T16:16:50;20.80;56.20
49379;DHT22;35254;47.990;-1.608;2023-03-12T16:19:21;20.80;56.70
49379;DHT22;35254;47.990;-1.608;2023-03-12T16:21:47;20.80;56.40
49379;DHT22;35254;47.990;-1.608;2023-03-12T16:24:13;20.80;56.30
49379;DHT22;35254;47.990;-1.608;2023-03-12T16:26:53;20.80;56.30
49379;DHT22;35254;47.990;-1.608;2023-03-12T16:29:20;20.80;56.10
49379;DHT22;35254;47.990;-1.608;2023-03-12T16:31:54;20.80;56.30
49379;DHT22;35254;47.990;-1.608;2023-03-12T16:34:20;20.80;56.40
49379;DHT22;35254;47.990;-1.608;2023-03-12T16:36:46;20.80;56.30
49379;DHT22;35254;47.990;-1.608;2023-03-12T16:39:11;20.80;56.60
49379;DHT22;35254;47.990;-1.608;2023-03-12T16:41:37;20.80;56.00
49379;DHT22;35254;47.990;-1.608;2023-03-12T16:44:06;20.80;56.60
49379;DHT22;35254;47.990;-1.608;2023-03-12T16:46:32;20.80;56.60
49379;DHT22;35254;47.990;-1.608;2023-03-12T16:48:59;20.80;56.40
49379;DHT22;35254;47.990;-1.608;2023-03-12T16:51:25;20.80;56.00
49379;DHT22;35254;47.990;-1.608;2023-03-12T16:53:53;20.80;56.40
49379;DHT22;35254;47.990;-1.608;2023-03-12T16:56:21;20.70;56.50
49379;DHT22;35254;47.990;-1.608;2023-03-12T16:58:48;20.80;56.40
49379;DHT22;35254;47.990;-1.608;2023-03-12T17:01:18;20.70;56.90
49379;DHT22;35254;47.990;-1.608;2023-03-12T17:03:46;20.70;56.30
49379;DHT22;35254;47.990;-1.608;2023-03-12T17:06:22;20.70;56.40
49379;DHT22;35254;47.990;-1.608;2023-03-12T17:08:49;20.70;56.40
49379;DHT22;35254;47.990;-1.608;2023-03-12T17:11:21;20.70;56.10
49379;DHT22;35254;47.990;-1.608;2023-03-12T17:13:52;20.80;56.10
49379;DHT22;35254;47.990;-1.608;2023-03-12T17:16:18;20.70;56.50
49379;DHT22;35254;47.990;-1.608;2023-03-12T17:18:44;20.70;56.30
49379;DHT22;35254;47.990;-1.608;2023-03-12T17:21:14;20.70;56.20
49379;DHT22;35254;47.990;-1.608;2023-03-12T17:23:40;20.80;56.30
49379;DHT22;35254;47.990;-1.608;2023-03-12T17:26:06;20.70;55.90
49379;DHT22;35254;47.990;-1.608;2023-03-12T17:28:32;20.70;56.20
49379;DHT22;35254;47.990;-1.608;2023-03-12T17:30:58;20.70;56.00
49379;DHT22;35254;47.990;-1.608;2023-03-12T17:33:24;20.70;56.10
49379;DHT22;35254;47.990;-1.608;2023-03-12T17:36:05;20.70;55.80
49379;DHT22;35254;47.990;-1.608;2023-03-12T17:38:31;20.70;55.90
49379;DHT22;35254;47.990;-1.608;2023-03-12T17:40:58;20.70;55.80
49379;DHT22;35254;47.990;-1.608;2023-03-12T17:43:24;20.70;55.90
49379;DHT22;35254;47.990;-1.608;2023-03-12T17:45:51;20.70;56.40